createdAt,value
2016-07-06T00:00:00.959Z,1003.1
2016-07-06T00:15:05.581Z,1003.04
2016-07-06T00:30:13.391Z,1003
2016-07-06T00:45:00.968Z,1003.04
2016-07-06T01:00:05.661Z,1003
2016-07-06T01:15:06.020Z,1003.1
2016-07-06T01:30:06.045Z,1003.24
2016-07-06T01:45:00.991Z,1003.35
2016-07-06T02:00:05.655Z,1003.21
2016-07-06T02:15:05.593Z,1003.24
2016-07-06T02:30:07.325Z,1003.33
2016-07-06T02:45:14.024Z,1003.55
2016-07-06T03:00:07.269Z,1003.59
2016-07-06T03:15:07.238Z,1003.65
2016-07-06T03:30:12.390Z,1003.79
2016-07-06T03:45:07.350Z,1003.74
2016-07-06T04:00:03.041Z,1003.82
2016-07-06T04:15:07.335Z,1003.97
2016-07-06T04:30:01.059Z,1003.99
2016-07-06T04:45:05.648Z,1004.14
2016-07-06T05:00:05.668Z,1004.25
2016-07-06T05:15:05.687Z,1004.37
2016-07-06T05:30:05.722Z,1004.44
2016-07-06T05:45:05.760Z,1004.52
2016-07-06T06:00:05.701Z,1004.71
2016-07-06T06:15:05.704Z,1004.74
2016-07-06T06:30:06.227Z,1004.66
2016-07-06T06:45:06.175Z,1004.76
2016-07-06T07:00:05.736Z,1005.06
2016-07-06T07:15:05.167Z,1004.79
2016-07-06T07:30:01.165Z,1004.79
2016-07-06T07:45:05.795Z,1004.91
2016-07-06T08:00:06.235Z,1005.14
2016-07-06T08:15:08.363Z,1004.89
2016-07-06T08:30:14.080Z,1004.98
2016-07-06T08:45:14.028Z,1005.27
2016-07-06T09:00:05.796Z,1005.03
2016-07-06T09:15:01.184Z,1005.3
2016-07-06T09:30:05.780Z,1005.35
2016-07-06T09:45:01.194Z,1005.58
2016-07-06T10:00:01.240Z,1005.88
2016-07-06T10:15:01.237Z,1005.99
2016-07-06T10:30:08.242Z,1006.03
2016-07-06T10:45:07.517Z,1006.29
2016-07-06T11:00:05.862Z,1006.65
2016-07-06T11:15:03.222Z,1006.28
2016-07-06T11:30:06.272Z,1006.55
2016-07-06T11:45:07.469Z,1006.53
2016-07-06T12:00:07.596Z,1006.57
2016-07-06T12:15:05.832Z,1006.65
2016-07-06T12:30:05.863Z,1006.63
2016-07-06T12:45:14.156Z,1006.58
2016-07-06T13:00:05.837Z,1006.67
2016-07-06T13:15:03.324Z,1006.83
2016-07-06T13:30:01.242Z,1006.88
2016-07-06T13:45:07.569Z,1007.01
2016-07-06T14:00:01.269Z,1007.2
2016-07-06T14:15:05.922Z,1006.92
2016-07-06T14:30:05.916Z,1007.1
2016-07-06T14:45:03.304Z,1006.99
2016-07-06T15:00:01.343Z,1006.9
2016-07-06T15:15:01.351Z,1006.63
2016-07-06T15:30:01.382Z,1006.75
2016-07-06T15:45:05.925Z,1006.54
2016-07-06T16:00:05.947Z,1006.61
2016-07-06T16:15:07.647Z,1006.76
2016-07-06T16:30:06.312Z,1006.75
2016-07-06T16:45:06.386Z,1006.99
2016-07-06T17:00:05.945Z,1006.92
2016-07-06T17:15:05.973Z,1007.13
2016-07-06T17:30:14.452Z,1007.25
2016-07-06T17:45:05.935Z,1007.29
2016-07-06T18:00:05.954Z,1007.4
2016-07-06T18:15:14.194Z,1007.46
2016-07-06T18:30:06.261Z,1007.44
2016-07-06T18:45:06.047Z,1007.57
2016-07-06T19:00:01.396Z,1007.65
2016-07-06T19:15:01.448Z,1007.75
2016-07-06T19:30:01.400Z,1007.85
2016-07-06T19:45:06.084Z,1008.01
2016-07-06T20:00:03.510Z,1008.15
2016-07-06T20:15:22.682Z,1008.44
2016-07-06T20:30:03.519Z,1008.33
2016-07-06T20:45:03.525Z,1008.38
2016-07-06T21:00:03.548Z,1008.54
2016-07-06T21:15:01.427Z,1008.54
2016-07-06T21:30:06.065Z,1008.68
2016-07-06T21:45:06.054Z,1008.69
2016-07-06T22:00:06.541Z,1008.66
2016-07-06T22:15:06.369Z,1008.91
2016-07-06T22:30:06.109Z,1008.89
2016-07-06T22:45:01.440Z,1008.88
2016-07-06T23:00:01.441Z,1008.94
2016-07-06T23:15:01.480Z,1009.04
2016-07-06T23:30:01.458Z,1009.05
2016-07-06T23:45:03.614Z,1008.86
